createdAt,value
2018-07-11T00:01:59.555Z,92.40
2018-07-11T00:04:27.706Z,92.70
2018-07-11T00:06:55.822Z,92.90
2018-07-11T00:09:24.043Z,92.90
2018-07-11T00:11:52.234Z,93.10
2018-07-11T00:14:20.391Z,93.10
2018-07-11T00:16:54.243Z,93.30
2018-07-11T00:19:22.545Z,93.40
2018-07-11T00:21:50.627Z,93.40
2018-07-11T00:24:18.850Z,93.60
2018-07-11T00:26:47.011Z,93.40
2018-07-11T00:29:15.191Z,93.50
2018-07-11T00:31:43.853Z,93.40
2018-07-11T00:34:12.016Z,93.40
2018-07-11T00:36:40.115Z,93.40
2018-07-11T00:39:08.236Z,93.40
2018-07-11T00:41:36.309Z,93.40
2018-07-11T00:44:04.407Z,93.50
2018-07-11T00:46:32.538Z,93.60
2018-07-11T00:49:00.624Z,93.90
2018-07-11T00:51:28.715Z,94.70
2018-07-11T00:53:56.768Z,95.10
2018-07-11T00:56:24.870Z,95.00
2018-07-11T00:59:03.046Z,95.30
2018-07-11T01:01:31.431Z,96.00
2018-07-11T01:04:01.172Z,96.20
2018-07-11T01:11:25.764Z,95.50
2018-07-11T01:13:53.867Z,95.30
2018-07-11T01:16:23.403Z,95.00
2018-07-11T01:19:08.266Z,95.40
2018-07-11T01:21:36.959Z,95.70
2018-07-11T01:24:05.066Z,95.80
2018-07-11T01:26:35.198Z,95.60
2018-07-11T01:29:03.373Z,96.00
2018-07-11T01:31:31.550Z,95.80
2018-07-11T01:34:00.080Z,95.20
2018-07-11T01:36:28.687Z,95.80
2018-07-11T01:38:57.702Z,95.70
2018-07-11T01:41:25.816Z,95.70
2018-07-11T01:43:54.094Z,94.70
2018-07-11T01:46:22.236Z,95.00
2018-07-11T01:48:50.377Z,95.00
2018-07-11T01:51:18.606Z,94.40
2018-07-11T01:53:46.768Z,93.60
2018-07-11T01:56:14.861Z,94.40
2018-07-11T01:58:46.951Z,93.80
2018-07-11T02:01:15.913Z,93.40
2018-07-11T02:03:44.088Z,93.20
2018-07-11T02:06:12.235Z,93.40
2018-07-11T02:08:40.379Z,93.20
2018-07-11T02:11:08.472Z,92.80
2018-07-11T02:13:36.528Z,92.90
2018-07-11T02:16:04.708Z,93.10
2018-07-11T02:18:35.126Z,92.40
2018-07-11T02:21:03.301Z,92.80
2018-07-11T02:23:34.514Z,93.10
2018-07-11T02:28:37.142Z,93.30
2018-07-11T02:31:05.246Z,93.10
2018-07-11T02:33:33.548Z,93.20
2018-07-11T02:36:01.657Z,93.70
2018-07-11T02:38:29.885Z,94.20
2018-07-11T02:40:57.989Z,94.40
2018-07-11T02:43:28.251Z,94.80
2018-07-11T02:45:56.375Z,95.00
2018-07-11T02:48:24.511Z,95.50
2018-07-11T02:50:52.674Z,95.50
2018-07-11T02:53:22.179Z,95.30
2018-07-11T02:55:51.380Z,94.90
2018-07-11T03:00:48.236Z,95.50
2018-07-11T03:03:16.625Z,94.60
2018-07-11T03:05:44.925Z,93.90
2018-07-11T03:08:13.967Z,94.40
2018-07-11T03:10:42.107Z,94.40
2018-07-11T03:13:10.208Z,94.80
2018-07-11T03:15:38.321Z,94.90
2018-07-11T03:18:06.509Z,94.50
2018-07-11T03:20:34.788Z,94.50
2018-07-11T03:23:02.901Z,93.40
2018-07-11T03:25:31.009Z,93.10
2018-07-11T03:27:59.163Z,92.70
2018-07-11T03:30:27.299Z,92.90
2018-07-11T03:32:55.599Z,92.40
2018-07-11T03:35:23.753Z,92.50
2018-07-11T03:37:52.149Z,92.70
2018-07-11T03:40:20.252Z,92.90
2018-07-11T03:42:48.406Z,92.90
2018-07-11T03:45:16.500Z,92.80
2018-07-11T03:47:44.665Z,92.60
2018-07-11T03:50:12.813Z,92.20
2018-07-11T03:52:41.063Z,92.20
2018-07-11T03:55:09.124Z,91.90
2018-07-11T03:57:37.249Z,92.00
2018-07-11T04:00:05.376Z,91.90
2018-07-11T04:02:33.559Z,92.00
2018-07-11T04:05:01.868Z,91.90
2018-07-11T04:07:30.028Z,92.00
2018-07-11T04:09:58.103Z,91.90
2018-07-11T04:12:26.231Z,91.80
2018-07-11T04:14:54.357Z,91.80
2018-07-11T04:17:22.664Z,91.50
2018-07-11T04:19:50.783Z,91.70
2018-07-11T04:22:18.908Z,92.00
2018-07-11T04:24:47.024Z,92.90
2018-07-11T04:27:15.180Z,93.40
2018-07-11T04:29:43.458Z,93.00
2018-07-11T04:32:11.683Z,93.20
2018-07-11T04:34:39.816Z,92.90
2018-07-11T04:37:08.026Z,93.20
2018-07-11T04:39:36.227Z,93.20
2018-07-11T04:42:04.364Z,93.20
2018-07-11T04:44:32.841Z,92.90
2018-07-11T04:47:01.221Z,93.20
2018-07-11T04:49:29.361Z,93.20
2018-07-11T04:51:57.484Z,93.50
2018-07-11T04:54:25.583Z,93.70
2018-07-11T04:56:53.688Z,93.40
2018-07-11T04:59:21.902Z,93.30
2018-07-11T05:01:50.025Z,93.00
2018-07-11T05:04:18.275Z,92.70
2018-07-11T05:06:46.375Z,92.10
2018-07-11T05:09:14.481Z,91.90
2018-07-11T05:14:10.660Z,91.40
2018-07-11T05:16:38.819Z,90.90
2018-07-11T05:19:06.953Z,90.70
2018-07-11T05:21:35.052Z,90.80
2018-07-11T05:24:03.267Z,88.80
2018-07-11T05:26:31.478Z,87.80
2018-07-11T05:28:59.863Z,88.60
2018-07-11T05:31:27.967Z,87.40
2018-07-11T05:33:56.126Z,85.50
2018-07-11T05:36:25.356Z,84.80
2018-07-11T05:38:53.623Z,84.10
2018-07-11T05:41:24.043Z,83.00
2018-07-11T05:43:53.569Z,83.80
2018-07-11T05:46:21.771Z,84.30
2018-07-11T05:48:50.707Z,84.20
2018-07-11T05:51:34.867Z,84.30
2018-07-11T05:54:03.003Z,83.20
2018-07-11T05:56:31.234Z,83.60
2018-07-11T05:59:04.407Z,81.00
2018-07-11T06:01:32.637Z,80.70
2018-07-11T06:04:01.385Z,79.60
2018-07-11T06:06:29.597Z,80.40
2018-07-11T06:08:57.800Z,80.10
2018-07-11T06:11:25.952Z,81.00
2018-07-11T06:13:54.617Z,80.00
2018-07-11T06:16:23.463Z,78.70
2018-07-11T06:18:51.588Z,77.40
2018-07-11T06:21:22.560Z,77.70
2018-07-11T06:23:50.687Z,78.40
2018-07-11T06:31:15.355Z,77.00
2018-07-11T06:33:43.609Z,77.60
2018-07-11T06:36:11.808Z,76.40
2018-07-11T06:38:39.875Z,75.70
2018-07-11T06:41:08.012Z,75.80
2018-07-11T06:46:04.668Z,75.60
2018-07-11T06:48:32.776Z,75.10
2018-07-11T06:51:01.501Z,75.90
2018-07-11T06:53:29.600Z,75.60
2018-07-11T06:55:57.820Z,76.40
2018-07-11T06:58:26.685Z,75.00
2018-07-11T07:00:57.124Z,74.90
2018-07-11T07:03:25.948Z,74.00
2018-07-11T07:05:54.175Z,73.90
2018-07-11T07:08:22.312Z,74.10
2018-07-11T07:10:50.414Z,73.30
2018-07-11T07:13:18.573Z,73.20
2018-07-11T07:15:46.649Z,72.60
2018-07-11T07:18:14.819Z,72.80
2018-07-11T07:20:44.105Z,70.90
2018-07-11T07:23:12.311Z,71.20
2018-07-11T07:25:40.424Z,69.90
2018-07-11T07:28:08.620Z,66.30
2018-07-11T07:30:36.811Z,65.50
2018-07-11T07:33:05.912Z,65.50
2018-07-11T07:38:02.107Z,67.00
2018-07-11T07:40:30.372Z,65.20
2018-07-11T07:42:58.719Z,65.30
2018-07-11T07:45:26.967Z,65.10
2018-07-11T07:47:59.228Z,63.70
2018-07-11T07:50:27.348Z,62.60
2018-07-11T07:52:55.464Z,63.20
2018-07-11T07:58:10.039Z,59.70
2018-07-11T08:00:38.244Z,57.50
2018-07-11T08:03:06.343Z,56.20
2018-07-11T08:05:35.899Z,55.40
2018-07-11T08:08:04.152Z,55.40
2018-07-11T08:10:32.637Z,54.50
2018-07-11T08:13:00.877Z,56.50
2018-07-11T08:15:30.015Z,55.50
2018-07-11T08:17:58.242Z,52.10
2018-07-11T08:20:26.524Z,49.80
2018-07-11T08:23:17.500Z,50.70
2018-07-11T08:25:58.540Z,50.60
2018-07-11T08:29:43.844Z,53.40
2018-07-11T08:34:32.136Z,54.30
2018-07-11T08:37:10.958Z,54.60
2018-07-11T08:42:03.794Z,54.80
2018-07-11T08:45:15.517Z,56.20
2018-07-11T08:48:09.916Z,54.50
2018-07-11T08:50:46.475Z,54.10
2018-07-11T08:53:26.094Z,54.00
2018-07-11T08:57:05.628Z,55.40
2018-07-11T08:59:58.208Z,56.40
2018-07-11T09:02:44.251Z,54.70
2018-07-11T09:05:23.858Z,54.50
2018-07-11T09:08:18.324Z,55.00
2018-07-11T09:11:02.788Z,55.80
2018-07-11T09:13:45.492Z,55.10
2018-07-11T09:18:34.689Z,55.60
2018-07-11T09:21:17.859Z,54.20
2018-07-11T09:24:51.015Z,51.50
2018-07-11T09:27:19.271Z,51.40
2018-07-11T09:32:16.213Z,51.70
2018-07-11T09:34:44.843Z,50.40
2018-07-11T09:37:12.988Z,50.70
2018-07-11T09:42:10.287Z,52.00
2018-07-11T09:44:38.452Z,52.00
2018-07-11T09:47:39.640Z,50.50
2018-07-11T09:50:07.823Z,50.40
2018-07-11T09:52:36.043Z,49.30
2018-07-11T09:55:04.223Z,48.40
2018-07-11T09:57:33.407Z,49.50
2018-07-11T10:02:29.475Z,49.00
2018-07-11T10:04:57.660Z,48.30
2018-07-11T10:07:26.496Z,49.40
2018-07-11T10:09:54.713Z,49.40
2018-07-11T10:12:22.821Z,47.30
2018-07-11T10:14:57.596Z,48.10
2018-07-11T10:17:25.676Z,47.50
2018-07-11T10:19:53.975Z,47.90
2018-07-11T10:24:50.118Z,45.70
2018-07-11T10:27:18.252Z,46.20
2018-07-11T10:29:49.741Z,46.30
2018-07-11T10:32:18.044Z,45.90
2018-07-11T10:34:46.159Z,45.10
2018-07-11T10:37:15.219Z,43.50
2018-07-11T10:39:43.396Z,44.10
2018-07-11T10:42:12.062Z,45.70
2018-07-11T10:44:40.394Z,45.10
2018-07-11T10:47:12.549Z,45.50
2018-07-11T10:49:41.317Z,46.00
2018-07-11T10:52:09.761Z,45.20
2018-07-11T10:54:39.237Z,43.80
2018-07-11T10:57:07.393Z,44.70
2018-07-11T10:59:35.506Z,44.90
2018-07-11T11:02:03.658Z,44.60
2018-07-11T11:04:31.956Z,43.40
2018-07-11T11:07:00.088Z,43.80
2018-07-11T11:09:28.216Z,45.00
2018-07-11T11:11:56.315Z,44.40
2018-07-11T11:14:24.429Z,44.20
2018-07-11T11:16:52.566Z,43.10
2018-07-11T11:19:20.719Z,43.00
2018-07-11T11:21:55.391Z,43.20
2018-07-11T11:24:23.478Z,43.00
2018-07-11T11:26:51.590Z,43.70
2018-07-11T11:29:19.731Z,44.90
2018-07-11T11:31:47.904Z,44.90
2018-07-11T11:34:16.006Z,45.60
2018-07-11T11:36:44.083Z,45.00
2018-07-11T11:39:12.294Z,44.40
2018-07-11T11:41:40.490Z,44.80
2018-07-11T11:44:08.560Z,45.70
2018-07-11T11:46:36.632Z,44.60
2018-07-11T11:49:04.799Z,44.50
2018-07-11T11:51:32.996Z,43.60
2018-07-11T11:54:01.192Z,43.30
2018-07-11T11:56:29.286Z,43.50
2018-07-11T11:58:57.336Z,43.00
2018-07-11T12:01:25.540Z,42.40
2018-07-11T12:03:53.756Z,42.60
2018-07-11T12:06:22.427Z,42.30
2018-07-11T12:08:54.943Z,41.70
2018-07-11T12:11:23.295Z,42.80
2018-07-11T12:13:51.516Z,42.70
2018-07-11T12:16:19.607Z,42.10
2018-07-11T12:21:15.791Z,42.40
2018-07-11T12:23:43.808Z,41.30
2018-07-11T12:26:11.827Z,42.10
2018-07-11T12:28:39.967Z,43.70
2018-07-11T12:31:08.243Z,43.40
2018-07-11T12:33:36.406Z,42.60
2018-07-11T12:36:04.767Z,43.30
2018-07-11T12:38:33.665Z,42.40
2018-07-11T12:41:01.797Z,43.20
2018-07-11T12:43:30.024Z,43.10
2018-07-11T12:45:58.381Z,43.60
2018-07-11T12:48:32.037Z,43.10
2018-07-11T12:51:00.463Z,42.50
2018-07-11T12:53:29.010Z,42.50
2018-07-11T12:55:57.198Z,43.20
2018-07-11T12:58:25.423Z,43.30
2018-07-11T13:00:53.718Z,42.90
2018-07-11T13:03:21.816Z,42.30
2018-07-11T13:05:50.063Z,41.30
2018-07-11T13:08:19.381Z,41.80
2018-07-11T13:10:47.867Z,42.40
2018-07-11T13:13:16.053Z,42.10
2018-07-11T13:15:44.414Z,43.00
2018-07-11T13:18:12.589Z,43.60
2018-07-11T13:20:40.691Z,44.10
2018-07-11T13:23:08.795Z,43.00
2018-07-11T13:25:37.007Z,43.30
2018-07-11T13:28:05.140Z,42.60
2018-07-11T13:30:33.253Z,42.30
2018-07-11T13:33:01.419Z,42.20
2018-07-11T13:35:29.696Z,40.80
2018-07-11T13:37:57.878Z,40.10
2018-07-11T13:40:25.967Z,41.70
2018-07-11T13:42:54.139Z,42.40
2018-07-11T13:45:22.356Z,43.10
2018-07-11T13:47:54.787Z,44.10
2018-07-11T13:50:22.944Z,46.70
2018-07-11T13:52:51.107Z,46.80
2018-07-11T13:55:20.024Z,47.40
2018-07-11T13:57:48.248Z,45.80
2018-07-11T14:00:16.414Z,45.80
2018-07-11T14:02:44.544Z,44.70
2018-07-11T14:05:12.755Z,43.80
2018-07-11T14:07:40.945Z,44.70
2018-07-11T14:10:09.086Z,43.30
2018-07-11T14:12:37.227Z,44.20
2018-07-11T14:15:05.365Z,44.70
2018-07-11T14:17:33.520Z,44.90
2018-07-11T14:20:01.741Z,44.70
2018-07-11T14:22:29.898Z,44.80
2018-07-11T14:24:57.997Z,45.20
2018-07-11T14:27:26.782Z,45.30
2018-07-11T14:29:54.975Z,45.70
2018-07-11T14:32:25.127Z,45.40
2018-07-11T14:34:53.298Z,44.90
2018-07-11T14:37:21.689Z,45.50
2018-07-11T14:39:49.878Z,45.50
2018-07-11T14:42:18.241Z,45.00
2018-07-11T14:44:46.445Z,46.20
2018-07-11T14:47:20.130Z,46.40
2018-07-11T14:52:17.019Z,47.30
2018-07-11T14:54:45.199Z,48.10
2018-07-11T14:57:13.818Z,47.30
2018-07-11T14:59:41.917Z,47.40
2018-07-11T15:02:10.056Z,47.90
2018-07-11T15:04:38.449Z,48.20
2018-07-11T15:07:06.578Z,52.40
2018-07-11T15:09:34.713Z,55.00
2018-07-11T15:12:02.830Z,56.20
2018-07-11T15:14:31.060Z,58.00
2018-07-11T15:16:59.246Z,59.50
2018-07-11T15:19:27.426Z,59.00
2018-07-11T15:21:55.620Z,61.00
2018-07-11T15:24:23.930Z,63.30
2018-07-11T15:26:52.114Z,65.20
2018-07-11T15:29:20.545Z,68.60
2018-07-11T15:34:17.306Z,70.20
2018-07-11T15:36:45.476Z,68.00
2018-07-11T15:39:13.653Z,67.30
2018-07-11T15:41:41.791Z,66.00
2018-07-11T15:44:09.932Z,65.00
2018-07-11T15:46:38.095Z,65.50
2018-07-11T15:49:06.302Z,63.50
2018-07-11T15:51:34.478Z,63.70
2018-07-11T15:54:02.563Z,62.50
2018-07-11T15:56:30.773Z,62.30
2018-07-11T15:59:05.184Z,61.30
2018-07-11T16:01:34.407Z,61.10
2018-07-11T16:06:31.051Z,58.40
2018-07-11T16:09:00.400Z,57.50
2018-07-11T16:11:29.162Z,59.40
2018-07-11T16:13:57.320Z,59.20
2018-07-11T16:16:25.424Z,60.10
2018-07-11T16:18:53.544Z,61.70
2018-07-11T16:21:21.755Z,62.60
2018-07-11T16:26:18.421Z,62.90
2018-07-11T16:28:46.725Z,63.80
2018-07-11T16:31:14.894Z,64.30
2018-07-11T16:33:43.015Z,65.30
2018-07-11T16:36:11.164Z,66.60
2018-07-11T16:38:39.287Z,67.20
2018-07-11T16:41:07.462Z,65.70
2018-07-11T16:43:35.706Z,65.80
2018-07-11T16:46:04.497Z,65.70
2018-07-11T16:48:32.645Z,64.80
2018-07-11T16:51:00.771Z,64.10
2018-07-11T16:53:28.876Z,64.00
2018-07-11T16:55:57.067Z,64.50
2018-07-11T16:58:28.234Z,62.30
2018-07-11T17:00:56.422Z,62.50
2018-07-11T17:03:26.820Z,62.00
2018-07-11T17:06:02.336Z,62.60
2018-07-11T17:08:32.295Z,63.10
2018-07-11T17:11:07.212Z,62.60
2018-07-11T17:13:35.304Z,63.00
2018-07-11T17:16:03.426Z,62.90
2018-07-11T17:18:39.286Z,63.20
2018-07-11T17:21:09.802Z,64.40
2018-07-11T17:23:47.379Z,62.90
2018-07-11T17:26:15.693Z,61.70
2018-07-11T17:28:44.652Z,61.50
2018-07-11T17:31:12.792Z,61.30
2018-07-11T17:33:40.964Z,61.80
2018-07-11T17:36:09.138Z,60.70
2018-07-11T17:38:37.488Z,60.60
2018-07-11T17:41:05.575Z,60.10
2018-07-11T17:43:36.592Z,61.30
2018-07-11T17:46:05.326Z,61.70
2018-07-11T17:49:13.557Z,62.70
2018-07-11T17:51:45.748Z,62.50
2018-07-11T17:54:13.880Z,62.80
2018-07-11T17:56:47.919Z,63.50
2018-07-11T17:59:16.207Z,64.20
2018-07-11T18:01:50.614Z,64.40
2018-07-11T18:04:32.867Z,64.30
2018-07-11T18:09:40.732Z,64.30
2018-07-11T18:12:21.860Z,63.80
2018-07-11T18:14:55.762Z,64.10
2018-07-11T18:18:02.240Z,64.20
2018-07-11T18:20:38.011Z,65.00
2018-07-11T18:23:22.635Z,65.30
2018-07-11T18:26:00.578Z,65.10
2018-07-11T18:28:40.167Z,65.50
2018-07-11T18:31:19.567Z,66.00
2018-07-11T18:33:58.853Z,66.90
2018-07-11T18:38:38.040Z,67.30
2018-07-11T18:41:12.855Z,67.80
2018-07-11T18:44:04.821Z,68.40
2018-07-11T18:46:50.411Z,68.40
2018-07-11T18:49:28.140Z,68.30
2018-07-11T18:52:10.712Z,68.80
2018-07-11T18:54:46.939Z,69.10
2018-07-11T18:57:26.193Z,69.00
2018-07-11T19:00:07.084Z,69.40
2018-07-11T19:02:46.672Z,69.50
2018-07-11T19:05:23.070Z,70.30
2018-07-11T19:07:55.691Z,70.80
2018-07-11T19:10:31.865Z,71.50
2018-07-11T19:13:00.267Z,72.00
2018-07-11T19:15:39.707Z,72.00
2018-07-11T19:18:19.335Z,72.30
2018-07-11T19:21:03.463Z,72.70
2018-07-11T19:23:40.480Z,72.60
2018-07-11T19:26:23.010Z,72.60
2018-07-11T19:28:57.573Z,73.00
2018-07-11T19:31:39.792Z,73.20
2018-07-11T19:34:37.964Z,73.60
2018-07-11T19:37:14.230Z,74.00
2018-07-11T19:39:54.022Z,73.90
2018-07-11T19:52:23.831Z,72.50
2018-07-11T19:57:05.398Z,72.30
2018-07-11T19:59:33.516Z,74.60
2018-07-11T20:02:01.680Z,76.70
2018-07-11T20:04:29.867Z,77.60
2018-07-11T20:06:57.999Z,78.00
2018-07-11T20:09:26.167Z,77.90
2018-07-11T20:11:54.392Z,77.70
2018-07-11T20:14:22.549Z,78.10
2018-07-11T20:16:50.614Z,78.00
2018-07-11T20:19:18.701Z,78.40
2018-07-11T20:21:46.861Z,78.20
2018-07-11T20:24:15.087Z,78.10
2018-07-11T20:26:43.235Z,79.40
2018-07-11T20:29:11.900Z,79.40
2018-07-11T20:31:40.096Z,80.10
2018-07-11T20:34:08.241Z,79.80
2018-07-11T20:36:36.338Z,80.40
2018-07-11T20:39:04.753Z,82.60
2018-07-11T20:41:32.880Z,84.50
2018-07-11T20:44:00.967Z,89.10
2018-07-11T20:46:29.137Z,91.20
2018-07-11T20:48:57.256Z,92.00
2018-07-11T20:51:25.419Z,92.80
2018-07-11T20:56:21.412Z,93.70
2018-07-11T20:59:01.041Z,92.50
2018-07-11T21:01:40.600Z,93.60
2018-07-11T21:05:23.157Z,94.20
2018-07-11T21:08:05.408Z,94.00
2018-07-11T21:10:44.636Z,94.70
2018-07-11T21:23:16.739Z,94.50
2018-07-11T21:25:45.435Z,94.60
2018-07-11T21:28:13.686Z,94.80
2018-07-11T21:30:41.810Z,94.30
2018-07-11T21:33:09.898Z,94.20
2018-07-11T21:35:38.149Z,95.00
2018-07-11T21:38:06.276Z,95.30
2018-07-11T21:40:34.372Z,95.40
2018-07-11T21:43:02.448Z,95.20
2018-07-11T21:45:30.533Z,94.80
2018-07-11T21:47:58.923Z,94.50
2018-07-11T21:50:27.076Z,94.60
2018-07-11T21:52:55.244Z,95.00
2018-07-11T21:55:23.370Z,95.30
2018-07-11T21:57:51.471Z,96.00
2018-07-11T22:00:31.268Z,96.60
2018-07-11T22:02:59.404Z,96.50
2018-07-11T22:05:28.179Z,96.20
2018-07-11T22:07:56.314Z,95.20
2018-07-11T22:10:24.418Z,94.70
2018-07-11T22:12:52.500Z,95.20
2018-07-11T22:15:20.590Z,95.20
2018-07-11T22:18:00.199Z,95.30
2018-07-11T22:20:27.458Z,95.40
2018-07-11T22:22:54.624Z,95.60
2018-07-11T22:25:21.882Z,95.90
2018-07-11T22:27:49.059Z,95.70
2018-07-11T22:30:16.262Z,95.40
2018-07-11T22:32:43.462Z,95.50
2018-07-11T22:35:10.685Z,95.90
2018-07-11T22:37:37.895Z,95.80
2018-07-11T22:40:05.098Z,96.10
2018-07-11T22:42:32.349Z,96.10
2018-07-11T22:44:59.537Z,96.30
2018-07-11T22:47:26.826Z,96.20
2018-07-11T22:49:59.511Z,96.00
2018-07-11T22:52:28.755Z,95.90
2018-07-11T22:54:56.139Z,96.20
2018-07-11T22:57:23.295Z,96.50
2018-07-11T22:59:51.070Z,96.60
2018-07-11T23:02:18.882Z,96.50
2018-07-11T23:04:46.089Z,96.20
2018-07-11T23:09:40.802Z,96.90
2018-07-11T23:12:07.966Z,96.30
2018-07-11T23:14:35.223Z,96.70
2018-07-11T23:17:03.075Z,96.70
2018-07-11T23:19:30.735Z,96.80
2018-07-11T23:21:58.343Z,97.00
2018-07-11T23:24:25.719Z,97.00
2018-07-11T23:26:53.126Z,96.50
2018-07-11T23:29:20.573Z,96.40
2018-07-11T23:34:15.414Z,95.50
2018-07-11T23:36:43.738Z,95.10
2018-07-11T23:39:12.012Z,94.70
2018-07-11T23:41:39.465Z,94.60
2018-07-11T23:44:06.740Z,94.60
2018-07-11T23:46:33.895Z,94.60
2018-07-11T23:49:01.146Z,95.00
2018-07-11T23:51:28.372Z,95.00
2018-07-11T23:53:55.559Z,94.90
2018-07-11T23:56:22.777Z,94.80
2018-07-11T23:58:49.967Z,94.80
